Main page
METAR-TAF:

METAR-TAF

Airports :

Ayatollah Hashemi Rafsanjani Airport

Kerman, Iran

latitude: 30-15N, longitude: 056-58E, elevation: 1748 m

Current weather observation

The report was made 11 minutes ago, at 08:00 UTC
Wind 8 kt from the North
Temperature 36°C
Humidity 5%
Pressure 1016 hPa
Visibility 10 km or more
no clouds below 1500 m and no cumulonimbus

METAR: OIKK 250800Z 01008KT CAVOK 36/M09 Q1015 A3000

Time: 12:41 (08:11 UTC)

Forecast

The report was made 2 hours and 41 minutes ago, at 05:30 UTC
Forecast valid from 25 at 06 UTC to 26 at 12 UTC
Wind 8 kt from the East/Northeast
Visibility: 8000 m
Temporary
from 25 at 09 UTC to 25 at 16 UTC
Wind 17 kt from the Northeast
Visibility: 4000 m
sand
Temporary
from 26 at 07 UTC to 26 at 12 UTC
Wind 19 kt from the West/Northwest
Visibility: 3000 m
sand

TAF: OIKK 250530Z 2506/2612 07004MPS 8000 NSC TEMPO 2509/2516 04009MPS 4000 SA TEMPO 2607/2612 30010MPS 3000 SA

Weather observations and forecasts of more than 4000 airports (METAR and TAF reports).

The available stations are represented by yellow and red dots on the map.

Hover mouse over dot to see the name of the station.

Then click to see weather observations and forecasts.

To change the map : click on the green buttons with a black cross to zoom in, on the green button with a dash to zoom out, or on the green arrows for adjacent maps.


METAR-TAF: